createdAt,value
2024-01-14T00:00:55.288Z,16.54
2024-01-14T00:01:55.260Z,16.53
2024-01-14T00:02:55.245Z,16.53
2024-01-14T00:03:55.282Z,16.55
2024-01-14T00:04:55.272Z,16.51
2024-01-14T00:05:55.401Z,16.55
2024-01-14T00:06:55.334Z,16.54
2024-01-14T00:07:55.302Z,16.54
2024-01-14T00:08:55.371Z,16.51
2024-01-14T00:09:55.318Z,16.48
2024-01-14T00:10:55.317Z,16.46
2024-01-14T00:11:55.383Z,16.49
2024-01-14T00:12:55.371Z,16.51
2024-01-14T00:13:55.400Z,16.52
2024-01-14T00:14:55.563Z,16.47
2024-01-14T00:15:55.397Z,16.44
2024-01-14T00:16:55.409Z,16.42
2024-01-14T00:17:55.471Z,16.46
2024-01-14T00:18:55.541Z,16.44
2024-01-14T00:19:55.486Z,16.47
2024-01-14T00:20:55.515Z,16.43
2024-01-14T00:21:55.467Z,16.42
2024-01-14T00:22:55.480Z,16.40
2024-01-14T00:23:55.541Z,16.37
2024-01-14T00:24:55.528Z,16.39
2024-01-14T00:25:55.566Z,16.40
2024-01-14T00:26:55.628Z,16.41
2024-01-14T00:27:55.581Z,16.42
2024-01-14T00:28:55.581Z,16.41
2024-01-14T00:29:55.624Z,16.43
2024-01-14T00:30:55.750Z,16.37
2024-01-14T00:31:55.633Z,16.44
2024-01-14T00:32:55.668Z,16.44
2024-01-14T00:33:55.814Z,16.41
2024-01-14T00:34:55.800Z,16.36
2024-01-14T00:35:55.784Z,16.39
2024-01-14T00:36:55.706Z,16.35
2024-01-14T00:37:55.716Z,16.42
2024-01-14T00:38:55.807Z,16.38
2024-01-14T00:39:55.729Z,16.35
2024-01-14T00:40:55.757Z,16.36
2024-01-14T00:41:55.788Z,16.36
2024-01-14T00:42:55.769Z,16.36
2024-01-14T00:43:55.795Z,16.34
2024-01-14T00:44:55.855Z,16.35
2024-01-14T00:45:55.824Z,16.36
2024-01-14T00:46:55.808Z,16.34
2024-01-14T00:47:55.947Z,16.35
2024-01-14T00:48:55.885Z,16.33
2024-01-14T00:49:55.881Z,16.37
2024-01-14T00:50:55.912Z,16.36
2024-01-14T00:51:56.153Z,16.33
2024-01-14T00:52:55.941Z,16.34
2024-01-14T00:53:55.940Z,16.36
2024-01-14T00:54:55.949Z,16.33
2024-01-14T00:55:55.944Z,16.33
2024-01-14T00:56:55.977Z,16.33
2024-01-14T00:57:55.986Z,16.32
2024-01-14T00:58:56.005Z,16.30
2024-01-14T00:59:56.015Z,16.32
2024-01-14T01:00:56.085Z,16.32
2024-01-14T01:01:56.045Z,16.34
2024-01-14T01:02:56.111Z,16.33
2024-01-14T01:03:56.131Z,16.34
2024-01-14T01:04:56.137Z,16.31
2024-01-14T01:05:56.182Z,16.33
2024-01-14T01:06:56.167Z,16.33
2024-01-14T01:07:56.139Z,16.35
2024-01-14T01:08:56.151Z,16.33
2024-01-14T01:09:56.200Z,16.33
2024-01-14T01:10:56.186Z,16.35
2024-01-14T01:11:56.284Z,16.37
2024-01-14T01:12:56.330Z,16.34
2024-01-14T01:13:56.247Z,16.29
2024-01-14T01:14:56.305Z,16.29
2024-01-14T01:15:56.295Z,16.32
2024-01-14T01:16:56.332Z,16.31
2024-01-14T01:17:56.432Z,16.31
2024-01-14T01:18:56.530Z,16.32
2024-01-14T01:19:56.370Z,16.31
2024-01-14T01:20:56.394Z,16.30
2024-01-14T01:21:56.383Z,16.33
2024-01-14T01:22:56.427Z,16.27
2024-01-14T01:23:56.472Z,16.25
2024-01-14T01:24:56.425Z,16.26
2024-01-14T01:25:56.473Z,16.29
2024-01-14T01:26:56.509Z,16.26
2024-01-14T01:27:56.485Z,16.28
2024-01-14T01:28:57.765Z,16.29
2024-01-14T01:29:56.612Z,16.30
2024-01-14T01:30:56.675Z,16.27
2024-01-14T01:32:04.877Z,16.26
2024-01-14T01:32:57.753Z,16.27
2024-01-14T01:33:56.707Z,16.25
2024-01-14T01:34:57.001Z,16.23
2024-01-14T01:35:56.644Z,16.27
2024-01-14T01:36:56.632Z,16.25
2024-01-14T01:37:56.602Z,16.19
2024-01-14T01:38:56.694Z,16.20
2024-01-14T01:39:56.621Z,16.22
2024-01-14T01:40:56.618Z,16.24
2024-01-14T01:41:56.630Z,16.23
2024-01-14T01:42:56.601Z,16.21
2024-01-14T01:43:56.641Z,16.16
2024-01-14T01:44:56.662Z,16.15
2024-01-14T01:45:56.614Z,16.18
2024-01-14T01:46:56.627Z,16.18
2024-01-14T01:47:56.680Z,16.17
2024-01-14T01:48:56.649Z,16.20
2024-01-14T01:49:56.704Z,16.18
2024-01-14T01:50:56.657Z,16.17
2024-01-14T01:51:56.632Z,16.18
2024-01-14T01:52:56.642Z,16.15
2024-01-14T01:53:56.728Z,16.19
2024-01-14T01:54:56.611Z,16.12
2024-01-14T01:55:56.653Z,16.13
2024-01-14T01:56:56.745Z,16.13
2024-01-14T01:57:56.630Z,16.13
2024-01-14T01:58:56.691Z,16.14
2024-01-14T01:59:56.667Z,16.15
2024-01-14T02:00:56.702Z,16.13
2024-01-14T02:01:56.645Z,16.15
2024-01-14T02:02:56.740Z,16.15
2024-01-14T02:03:56.737Z,16.17
2024-01-14T02:04:56.683Z,16.16
2024-01-14T02:05:56.646Z,16.17
2024-01-14T02:06:56.680Z,16.09
2024-01-14T02:07:56.718Z,16.12
2024-01-14T02:08:56.724Z,16.12
2024-01-14T02:09:56.713Z,16.12
2024-01-14T02:10:56.715Z,16.12
2024-01-14T02:11:56.800Z,16.14
2024-01-14T02:12:56.750Z,16.12
2024-01-14T02:13:56.870Z,16.13
2024-01-14T02:14:56.796Z,16.10
2024-01-14T02:15:56.884Z,16.11
2024-01-14T02:16:56.794Z,16.11
2024-01-14T02:17:56.944Z,16.08
2024-01-14T02:18:56.922Z,16.11
2024-01-14T02:19:56.934Z,16.13
2024-01-14T02:20:56.902Z,16.10
2024-01-14T02:21:56.875Z,16.12
2024-01-14T02:22:56.925Z,16.09
2024-01-14T02:23:56.935Z,16.11
2024-01-14T02:24:56.924Z,16.06
2024-01-14T02:25:56.976Z,16.05
2024-01-14T02:26:56.992Z,16.04
2024-01-14T02:27:56.982Z,16.06
2024-01-14T02:28:56.998Z,16.08
2024-01-14T02:29:57.002Z,16.04
2024-01-14T02:30:57.149Z,16.03
2024-01-14T02:31:57.041Z,16.06
2024-01-14T02:32:57.250Z,16.05
2024-01-14T02:33:57.153Z,16.07
2024-01-14T02:34:57.054Z,16.04
2024-01-14T02:35:57.087Z,16.05
2024-01-14T02:36:57.082Z,16.05
2024-01-14T02:37:57.112Z,16.04
2024-01-14T02:38:57.122Z,16.04
2024-01-14T02:39:57.132Z,16.02
2024-01-14T02:40:57.148Z,15.96
2024-01-14T02:41:57.182Z,15.96
2024-01-14T02:42:57.135Z,15.93
2024-01-14T02:43:57.157Z,15.98
2024-01-14T02:44:57.244Z,15.96
2024-01-14T02:45:57.188Z,15.94
2024-01-14T02:46:57.195Z,15.94
2024-01-14T02:47:57.311Z,15.96
2024-01-14T02:48:57.341Z,15.98
2024-01-14T02:49:57.306Z,16.00
2024-01-14T02:50:57.337Z,15.99
2024-01-14T02:51:57.265Z,15.96
2024-01-14T02:52:57.313Z,15.94
2024-01-14T02:53:57.359Z,15.93
2024-01-14T02:54:57.322Z,15.96
2024-01-14T02:55:57.329Z,15.97
2024-01-14T02:57:00.272Z,15.96
2024-01-14T02:57:57.370Z,15.96
2024-01-14T02:58:57.402Z,15.97
2024-01-14T02:59:57.368Z,15.97
2024-01-14T03:00:57.409Z,15.96
2024-01-14T03:01:57.353Z,15.93
2024-01-14T03:02:57.371Z,15.94
2024-01-14T03:03:57.433Z,15.93
2024-01-14T03:04:57.350Z,15.97
2024-01-14T03:05:57.425Z,15.96
2024-01-14T03:06:57.400Z,15.92
2024-01-14T03:07:57.376Z,15.94
2024-01-14T03:08:57.384Z,15.93
2024-01-14T03:09:57.355Z,15.93
2024-01-14T03:10:57.375Z,15.93
2024-01-14T03:11:57.373Z,15.88
2024-01-14T03:12:57.381Z,15.85
2024-01-14T03:13:57.356Z,15.90
2024-01-14T03:14:57.400Z,15.90
2024-01-14T03:15:57.391Z,15.87
2024-01-14T03:16:57.405Z,15.86
2024-01-14T03:17:57.454Z,15.87
2024-01-14T03:18:57.514Z,15.88
2024-01-14T03:19:57.464Z,15.86
2024-01-14T03:20:57.484Z,15.87
2024-01-14T03:21:57.368Z,15.86
2024-01-14T03:22:57.370Z,15.90
2024-01-14T03:23:57.424Z,15.89
2024-01-14T03:24:57.381Z,15.86
2024-01-14T03:25:57.382Z,15.90
2024-01-14T03:26:57.409Z,15.87
2024-01-14T03:27:57.376Z,15.87
2024-01-14T03:28:57.373Z,15.89
2024-01-14T03:29:57.386Z,15.88
2024-01-14T03:30:57.516Z,15.86
2024-01-14T03:31:57.398Z,15.86
2024-01-14T03:32:57.399Z,15.88
2024-01-14T03:33:57.464Z,15.85
2024-01-14T03:34:57.405Z,15.83
2024-01-14T03:35:57.414Z,15.84
2024-01-14T03:36:57.379Z,15.87
2024-01-14T03:37:57.413Z,15.88
2024-01-14T03:38:57.389Z,15.87
2024-01-14T03:39:57.416Z,15.85
2024-01-14T03:40:57.418Z,15.87
2024-01-14T03:41:57.441Z,15.87
2024-01-14T03:42:57.441Z,15.87
2024-01-14T03:43:57.393Z,15.89
2024-01-14T03:44:57.403Z,15.89
2024-01-14T03:45:57.391Z,15.90
2024-01-14T03:46:57.408Z,15.88
2024-01-14T03:47:57.533Z,15.81
2024-01-14T03:48:57.602Z,15.82
2024-01-14T03:49:57.406Z,15.87
2024-01-14T03:50:57.425Z,15.84
2024-01-14T03:51:57.382Z,15.81
2024-01-14T03:52:57.394Z,15.84
2024-01-14T03:53:57.456Z,15.86
2024-01-14T03:54:57.417Z,15.84
2024-01-14T03:55:57.420Z,15.82
2024-01-14T03:56:57.442Z,15.84
2024-01-14T03:57:57.385Z,15.88
2024-01-14T03:58:57.369Z,15.87
2024-01-14T03:59:57.431Z,15.85
2024-01-14T04:00:57.402Z,15.84
2024-01-14T04:01:57.398Z,15.84
2024-01-14T04:02:57.447Z,15.86
2024-01-14T04:03:57.538Z,15.83
2024-01-14T04:04:57.398Z,15.82
2024-01-14T04:05:57.477Z,15.81
2024-01-14T04:06:57.466Z,15.83
2024-01-14T04:07:57.404Z,15.79
2024-01-14T04:08:57.413Z,15.78
2024-01-14T04:09:57.416Z,15.79
2024-01-14T04:10:57.412Z,15.81
2024-01-14T04:11:57.416Z,15.83
2024-01-14T04:12:57.396Z,15.81
2024-01-14T04:13:57.401Z,15.84
2024-01-14T04:14:57.489Z,15.81
2024-01-14T04:15:59.867Z,15.80
2024-01-14T04:16:57.415Z,15.82
2024-01-14T04:17:57.539Z,15.82
2024-01-14T04:18:57.459Z,15.77
2024-01-14T04:19:57.444Z,15.75
2024-01-14T04:20:57.462Z,15.77
2024-01-14T04:21:57.418Z,15.76
2024-01-14T04:22:57.430Z,15.79
2024-01-14T04:23:57.457Z,15.76
2024-01-14T04:24:57.405Z,15.78
2024-01-14T04:25:57.452Z,15.78
2024-01-14T04:26:57.456Z,15.76
2024-01-14T04:27:57.410Z,15.79
2024-01-14T04:28:57.442Z,15.78
2024-01-14T04:29:57.475Z,15.77
2024-01-14T04:30:57.565Z,15.80
2024-01-14T04:31:57.500Z,15.79
2024-01-14T04:32:57.518Z,15.82
2024-01-14T04:34:05.078Z,15.78
2024-01-14T04:35:04.856Z,15.80
2024-01-14T04:36:04.866Z,15.79
2024-01-14T04:37:04.855Z,15.78
2024-01-14T04:38:04.831Z,15.77
2024-01-14T04:39:04.843Z,15.75
2024-01-14T04:40:04.820Z,15.81
2024-01-14T04:41:04.826Z,15.78
2024-01-14T04:42:04.835Z,15.78
2024-01-14T04:43:04.802Z,15.76
2024-01-14T04:44:04.831Z,15.77
2024-01-14T04:45:04.825Z,15.77
2024-01-14T04:46:04.854Z,15.79
2024-01-14T04:47:04.818Z,15.77
2024-01-14T04:48:04.975Z,15.80
2024-01-14T04:49:05.045Z,15.77
2024-01-14T04:50:05.161Z,15.74
2024-01-14T04:51:04.844Z,15.74
2024-01-14T04:52:04.856Z,15.78
2024-01-14T04:53:04.880Z,15.74
2024-01-14T04:54:04.908Z,15.73
2024-01-14T04:55:04.847Z,15.75
2024-01-14T04:56:04.813Z,15.78
2024-01-14T04:57:04.916Z,15.77
2024-01-14T04:58:04.850Z,15.74
2024-01-14T04:59:04.838Z,15.74
2024-01-14T05:00:04.855Z,15.73
2024-01-14T05:01:04.925Z,15.76
2024-01-14T05:02:04.851Z,15.77
2024-01-14T05:03:04.877Z,15.76
2024-01-14T05:04:04.880Z,15.72
2024-01-14T05:05:04.818Z,15.73
2024-01-14T05:06:05.090Z,15.73
2024-01-14T05:07:04.829Z,15.72
2024-01-14T05:08:04.846Z,15.71
2024-01-14T05:09:04.997Z,15.68
2024-01-14T05:10:04.819Z,15.74
2024-01-14T05:11:04.837Z,15.68
2024-01-14T05:12:04.861Z,15.70
2024-01-14T05:13:04.833Z,15.70
2024-01-14T05:14:04.857Z,15.69
2024-01-14T05:15:04.897Z,15.74
2024-01-14T05:16:04.849Z,15.71
2024-01-14T05:17:04.851Z,15.72
2024-01-14T05:18:04.999Z,15.72
2024-01-14T05:19:04.981Z,15.72
2024-01-14T05:20:04.841Z,15.72
2024-01-14T05:21:04.865Z,15.72
2024-01-14T05:22:04.828Z,15.71
2024-01-14T05:23:04.853Z,15.69
2024-01-14T05:24:04.865Z,15.73
2024-01-14T05:25:04.859Z,15.71
2024-01-14T05:26:04.880Z,15.67
2024-01-14T05:27:04.884Z,15.68
2024-01-14T05:28:04.887Z,15.66
2024-01-14T05:29:04.843Z,15.66
2024-01-14T05:30:04.955Z,15.68
2024-01-14T05:31:04.941Z,15.67
2024-01-14T05:32:04.884Z,15.68
2024-01-14T05:33:04.992Z,15.70
2024-01-14T05:34:05.041Z,15.69
2024-01-14T05:35:04.959Z,15.69
2024-01-14T05:36:04.973Z,15.68
2024-01-14T05:37:05.014Z,15.67
2024-01-14T05:38:05.029Z,15.67
2024-01-14T05:39:05.061Z,15.68
2024-01-14T05:40:05.087Z,15.66
2024-01-14T05:41:05.074Z,15.67
2024-01-14T05:42:05.151Z,15.67
2024-01-14T05:43:05.159Z,15.66
2024-01-14T05:44:05.165Z,15.66
2024-01-14T05:45:05.224Z,15.68
2024-01-14T05:46:05.217Z,15.67
2024-01-14T05:47:05.279Z,15.65
2024-01-14T05:48:05.438Z,15.65
2024-01-14T05:49:05.383Z,15.57
2024-01-14T05:50:05.397Z,15.64
2024-01-14T05:51:05.371Z,15.63
2024-01-14T05:52:05.481Z,15.60
2024-01-14T05:53:05.428Z,15.66
2024-01-14T05:54:05.460Z,15.65
2024-01-14T05:55:05.465Z,15.63
2024-01-14T05:56:05.496Z,15.67
2024-01-14T05:57:05.512Z,15.66
2024-01-14T05:58:05.539Z,15.63
2024-01-14T05:59:05.534Z,15.64
2024-01-14T06:00:05.612Z,15.64
2024-01-14T06:01:05.678Z,15.61
2024-01-14T06:02:05.707Z,15.65
2024-01-14T06:03:05.756Z,15.62
2024-01-14T06:04:05.665Z,15.65
2024-01-14T06:05:05.826Z,15.64
2024-01-14T06:06:05.749Z,15.63
2024-01-14T06:07:05.874Z,15.60
2024-01-14T06:08:05.756Z,15.61
2024-01-14T06:09:05.850Z,15.63
2024-01-14T06:10:05.776Z,15.58
2024-01-14T06:11:05.835Z,15.57
2024-01-14T06:12:05.912Z,15.57
2024-01-14T06:13:05.965Z,15.56
2024-01-14T06:14:05.885Z,15.55
2024-01-14T06:15:05.936Z,15.58
2024-01-14T06:16:05.897Z,15.57
2024-01-14T06:17:05.965Z,15.57
2024-01-14T06:18:06.075Z,15.57
2024-01-14T06:19:06.145Z,15.58
2024-01-14T06:20:06.106Z,15.58
2024-01-14T06:21:06.088Z,15.56
2024-01-14T06:22:06.062Z,15.54
2024-01-14T06:23:06.078Z,15.57
2024-01-14T06:24:06.144Z,15.57
2024-01-14T06:25:06.152Z,15.57
2024-01-14T06:26:06.191Z,15.53
2024-01-14T06:27:06.239Z,15.57
2024-01-14T06:28:06.226Z,15.56
2024-01-14T06:29:06.268Z,15.57
2024-01-14T06:30:06.353Z,15.50
2024-01-14T06:31:06.417Z,15.52
2024-01-14T06:32:06.346Z,15.51
2024-01-14T06:33:06.551Z,15.51
2024-01-14T06:34:06.503Z,15.51
2024-01-14T06:35:06.464Z,15.55
2024-01-14T06:36:06.477Z,15.50
2024-01-14T06:37:06.525Z,15.50
2024-01-14T06:38:06.493Z,15.49
2024-01-14T06:39:06.618Z,15.49
2024-01-14T06:40:06.611Z,15.53
2024-01-14T06:41:10.486Z,15.52
2024-01-14T06:42:06.701Z,15.53
2024-01-14T06:43:06.596Z,15.51
2024-01-14T06:44:06.593Z,15.42
2024-01-14T06:45:06.596Z,15.42
2024-01-14T06:46:06.798Z,15.49
2024-01-14T06:47:06.630Z,15.53
2024-01-14T06:48:06.730Z,15.53
2024-01-14T06:49:06.691Z,15.51
2024-01-14T06:50:13.514Z,15.49
2024-01-14T06:51:07.645Z,15.49
2024-01-14T06:52:06.593Z,15.46
2024-01-14T06:53:06.579Z,15.46
2024-01-14T06:54:06.626Z,15.49
2024-01-14T06:55:06.597Z,15.49
2024-01-14T06:56:06.625Z,15.47
2024-01-14T06:57:06.646Z,15.42
2024-01-14T06:58:06.606Z,15.44
2024-01-14T06:59:06.599Z,15.44
2024-01-14T07:00:06.978Z,15.46
2024-01-14T07:01:09.742Z,15.46
2024-01-14T07:02:07.624Z,15.47
2024-01-14T07:03:06.720Z,15.41
2024-01-14T07:04:06.828Z,15.45
2024-01-14T07:05:06.667Z,15.42
2024-01-14T07:06:06.774Z,15.40
2024-01-14T07:07:06.615Z,15.40
2024-01-14T07:08:06.614Z,15.42
2024-01-14T07:09:06.675Z,15.40
2024-01-14T07:10:06.610Z,15.38
2024-01-14T07:11:06.820Z,15.39
2024-01-14T07:12:06.617Z,15.41
2024-01-14T07:13:06.616Z,15.39
2024-01-14T07:14:06.655Z,15.38
2024-01-14T07:15:06.711Z,15.35
2024-01-14T07:16:06.675Z,15.40
2024-01-14T07:17:06.684Z,15.39
2024-01-14T07:18:06.805Z,15.35
2024-01-14T07:19:06.775Z,15.38
2024-01-14T07:20:06.752Z,15.39
2024-01-14T07:21:06.673Z,15.39
2024-01-14T07:22:06.749Z,15.38
2024-01-14T07:23:40.906Z,15.42
2024-01-14T07:24:07.662Z,15.42
2024-01-14T07:25:06.618Z,15.40
2024-01-14T07:26:06.621Z,15.42
2024-01-14T07:27:06.662Z,15.43
2024-01-14T07:28:06.626Z,15.44
2024-01-14T07:29:06.653Z,15.41
2024-01-14T07:30:06.738Z,15.43
2024-01-14T07:31:06.737Z,15.41
2024-01-14T07:32:07.034Z,15.42
2024-01-14T07:33:06.789Z,15.41
2024-01-14T07:34:06.769Z,15.39
2024-01-14T07:35:06.633Z,15.41
2024-01-14T07:36:06.757Z,15.37
2024-01-14T07:37:06.657Z,15.38
2024-01-14T07:38:06.664Z,15.39
2024-01-14T07:39:06.712Z,15.38
2024-01-14T07:40:06.673Z,15.40
2024-01-14T07:41:06.672Z,15.37
2024-01-14T07:42:06.713Z,15.34
2024-01-14T07:43:06.648Z,15.35
2024-01-14T07:44:06.644Z,15.39
2024-01-14T07:45:06.703Z,15.39
2024-01-14T07:46:06.663Z,15.34
2024-01-14T07:47:06.698Z,15.37
2024-01-14T07:48:06.846Z,15.37
2024-01-14T07:49:06.825Z,15.37
2024-01-14T07:50:06.746Z,15.37
2024-01-14T07:51:06.747Z,15.38
2024-01-14T07:52:06.821Z,15.38
2024-01-14T07:53:06.815Z,15.38
2024-01-14T07:54:06.886Z,15.40
2024-01-14T07:55:06.844Z,15.38
2024-01-14T07:56:06.864Z,15.39
2024-01-14T07:57:06.933Z,15.39
2024-01-14T07:58:06.913Z,15.40
2024-01-14T07:59:06.954Z,15.39
2024-01-14T08:00:07.018Z,15.39
2024-01-14T08:01:07.064Z,15.40
2024-01-14T08:02:06.995Z,15.39
2024-01-14T08:03:07.058Z,15.39
2024-01-14T08:04:07.166Z,15.38
2024-01-14T08:05:07.595Z,15.39
2024-01-14T08:06:07.134Z,15.39
2024-01-14T08:07:07.130Z,15.37
2024-01-14T08:08:07.153Z,15.40
2024-01-14T08:09:07.177Z,15.42
2024-01-14T08:10:07.231Z,15.42
2024-01-14T08:11:07.221Z,15.42
2024-01-14T08:12:07.313Z,15.41
2024-01-14T08:13:07.266Z,15.42
2024-01-14T08:14:07.308Z,15.43
2024-01-14T08:15:07.343Z,15.40
2024-01-14T08:16:07.546Z,15.39
2024-01-14T08:17:07.391Z,15.42
2024-01-14T08:18:07.878Z,15.42
2024-01-14T08:19:07.519Z,15.42
2024-01-14T08:20:07.541Z,15.42
2024-01-14T08:21:07.501Z,15.39
2024-01-14T08:22:07.534Z,15.36
2024-01-14T08:23:07.548Z,15.39
2024-01-14T08:24:07.587Z,15.39
2024-01-14T08:25:07.582Z,15.38
2024-01-14T08:26:07.581Z,15.39
2024-01-14T08:27:07.683Z,15.40
2024-01-14T08:28:07.653Z,15.36
2024-01-14T08:29:17.975Z,15.38
2024-01-14T08:30:08.811Z,15.38
2024-01-14T08:31:07.853Z,15.36
2024-01-14T08:32:07.667Z,15.40
2024-01-14T08:33:07.865Z,15.39
2024-01-14T08:34:07.752Z,15.41
2024-01-14T08:35:07.673Z,15.42
2024-01-14T08:36:07.673Z,15.41
2024-01-14T08:37:07.672Z,15.43
2024-01-14T08:38:07.673Z,15.44
2024-01-14T08:39:07.730Z,15.45
2024-01-14T08:40:07.701Z,15.41
2024-01-14T08:41:07.676Z,15.43
2024-01-14T08:42:07.744Z,15.47
2024-01-14T08:43:07.686Z,15.48
2024-01-14T08:44:07.670Z,15.48
2024-01-14T08:45:07.701Z,15.49
2024-01-14T08:46:07.657Z,15.49
2024-01-14T08:47:07.717Z,15.50
2024-01-14T08:48:07.916Z,15.49
2024-01-14T08:49:08.024Z,15.50
2024-01-14T08:50:07.781Z,15.50
2024-01-14T08:51:07.751Z,15.48
2024-01-14T08:52:07.712Z,15.52
2024-01-14T08:53:07.736Z,15.51
2024-01-14T08:54:07.755Z,15.50
2024-01-14T08:55:07.758Z,15.52
2024-01-14T08:56:07.805Z,15.53
2024-01-14T08:57:07.829Z,15.56
2024-01-14T08:58:07.879Z,15.54
2024-01-14T08:59:07.922Z,15.54
2024-01-14T09:00:08.008Z,15.53
2024-01-14T09:01:08.075Z,15.58
2024-01-14T09:02:08.041Z,15.55
2024-01-14T09:03:08.119Z,15.57
2024-01-14T09:04:08.290Z,15.57
2024-01-14T09:05:08.318Z,15.60
2024-01-14T09:06:08.413Z,15.61
2024-01-14T09:07:08.362Z,15.60
2024-01-14T09:08:08.357Z,15.60
2024-01-14T09:09:08.722Z,15.60
2024-01-14T09:10:08.394Z,15.62
2024-01-14T09:11:08.446Z,15.63
2024-01-14T09:12:08.492Z,15.65
2024-01-14T09:13:08.466Z,15.64
2024-01-14T09:14:08.516Z,15.63
2024-01-14T09:15:08.612Z,15.64
2024-01-14T09:16:08.583Z,15.67
2024-01-14T09:17:08.625Z,15.65
2024-01-14T09:18:08.780Z,15.69
2024-01-14T09:19:09.003Z,15.67
2024-01-14T09:20:08.933Z,15.68
2024-01-14T09:21:08.813Z,15.70
2024-01-14T09:22:08.829Z,15.71
2024-01-14T09:23:08.868Z,15.70
2024-01-14T09:24:08.940Z,15.72
2024-01-14T09:25:11.734Z,15.73
2024-01-14T09:26:08.979Z,15.73
2024-01-14T09:27:09.037Z,15.76
2024-01-14T09:28:08.975Z,15.76
2024-01-14T09:29:08.984Z,15.78
2024-01-14T09:30:09.249Z,15.77
2024-01-14T09:31:09.039Z,15.77
2024-01-14T09:32:08.976Z,15.78
2024-01-14T09:33:09.145Z,15.77
2024-01-14T09:34:09.064Z,15.82
2024-01-14T09:35:08.984Z,15.80
2024-01-14T09:36:09.006Z,15.82
2024-01-14T09:37:09.001Z,15.81
2024-01-14T09:38:09.008Z,15.82
2024-01-14T09:39:09.043Z,15.82
2024-01-14T09:40:08.998Z,15.83
2024-01-14T09:41:09.464Z,15.85
2024-01-14T09:42:09.108Z,15.84
2024-01-14T09:43:08.993Z,15.86
2024-01-14T09:44:09.000Z,15.87
2024-01-14T09:45:09.029Z,15.88
2024-01-14T09:46:09.038Z,15.88
2024-01-14T09:47:08.990Z,15.90
2024-01-14T09:48:09.137Z,15.90
2024-01-14T09:49:09.117Z,15.90
2024-01-14T09:50:09.124Z,15.91
2024-01-14T09:51:09.049Z,15.90
2024-01-14T09:52:09.019Z,15.93
2024-01-14T09:53:09.011Z,15.93
2024-01-14T09:54:09.143Z,15.93
2024-01-14T09:55:09.034Z,15.97
2024-01-14T09:56:09.032Z,15.94
2024-01-14T09:57:09.085Z,15.95
2024-01-14T09:58:09.021Z,15.96
2024-01-14T09:59:09.029Z,15.96
2024-01-14T10:00:09.070Z,15.95
2024-01-14T10:01:09.179Z,15.97
2024-01-14T10:02:09.042Z,15.96
2024-01-14T10:03:09.092Z,15.97
2024-01-14T10:04:09.086Z,15.98
2024-01-14T10:05:09.011Z,16.00
2024-01-14T10:06:09.174Z,16.00
2024-01-14T10:07:09.154Z,16.00
2024-01-14T10:08:09.041Z,16.02
2024-01-14T10:09:09.074Z,16.02
2024-01-14T10:10:09.039Z,16.04
2024-01-14T10:11:09.053Z,16.02
2024-01-14T10:12:09.080Z,16.04
2024-01-14T10:13:09.018Z,16.03
2024-01-14T10:14:09.038Z,16.05
2024-01-14T10:15:09.078Z,16.03
2024-01-14T10:16:49.333Z,16.06
2024-01-14T10:17:10.129Z,16.03
2024-01-14T10:18:09.105Z,16.06
2024-01-14T10:19:09.120Z,16.05
2024-01-14T10:20:09.045Z,16.05
2024-01-14T10:21:09.061Z,16.05
2024-01-14T10:22:15.593Z,16.08
2024-01-14T10:23:10.045Z,16.10
2024-01-14T10:24:09.107Z,16.11
2024-01-14T10:25:09.043Z,16.10
2024-01-14T10:26:09.050Z,16.10
2024-01-14T10:27:09.077Z,16.10
2024-01-14T10:28:09.079Z,16.08
2024-01-14T10:29:09.068Z,16.11
2024-01-14T10:30:09.145Z,16.13
2024-01-14T10:31:09.219Z,16.12
2024-01-14T10:32:09.041Z,16.11
2024-01-14T10:33:19.719Z,16.11
2024-01-14T10:34:10.225Z,16.14
2024-01-14T10:35:09.135Z,16.13
2024-01-14T10:36:09.264Z,16.14
2024-01-14T10:37:09.097Z,16.13
2024-01-14T10:38:09.041Z,16.16
2024-01-14T10:39:09.153Z,16.15
2024-01-14T10:40:09.086Z,16.13
2024-01-14T10:41:09.071Z,16.16
2024-01-14T10:42:09.077Z,16.15
2024-01-14T10:43:09.055Z,16.15
2024-01-14T10:44:09.086Z,16.18
2024-01-14T10:45:09.139Z,16.18
2024-01-14T10:46:09.180Z,16.19
2024-01-14T10:47:09.046Z,16.19
2024-01-14T10:48:09.228Z,16.19
2024-01-14T10:49:09.174Z,16.21
2024-01-14T10:50:09.085Z,16.21
2024-01-14T10:51:09.098Z,16.20
2024-01-14T10:52:09.072Z,16.21
2024-01-14T10:53:09.070Z,16.21
2024-01-14T10:54:09.086Z,16.20
2024-01-14T10:55:09.077Z,16.24
2024-01-14T10:56:09.084Z,16.22
2024-01-14T10:57:09.158Z,16.22
2024-01-14T10:58:09.105Z,16.22
2024-01-14T10:59:09.086Z,16.23
2024-01-14T11:00:09.153Z,16.23
2024-01-14T11:01:09.136Z,16.23
2024-01-14T11:02:09.096Z,16.23
2024-01-14T11:03:09.187Z,16.23
2024-01-14T11:04:09.221Z,16.23
2024-01-14T11:05:09.110Z,16.23
2024-01-14T11:06:09.116Z,16.22
2024-01-14T11:07:09.097Z,16.23
2024-01-14T11:08:09.132Z,16.21
2024-01-14T11:09:09.195Z,16.22
2024-01-14T11:10:09.138Z,16.19
2024-01-14T11:11:09.165Z,16.23
2024-01-14T11:12:09.237Z,16.23
2024-01-14T11:13:09.186Z,16.24
2024-01-14T11:14:09.219Z,16.21
2024-01-14T11:15:09.264Z,16.23
2024-01-14T11:16:09.250Z,16.24
2024-01-14T11:17:09.247Z,16.24
2024-01-14T11:18:09.380Z,16.24
2024-01-14T11:19:20.953Z,16.24
2024-01-14T11:20:10.316Z,16.24
2024-01-14T11:21:20.566Z,16.24
2024-01-14T11:22:22.545Z,16.25
2024-01-14T11:23:10.394Z,16.25
2024-01-14T11:24:09.422Z,16.26
2024-01-14T11:25:09.378Z,16.27
2024-01-14T11:26:09.355Z,16.28
2024-01-14T11:27:16.202Z,16.27
2024-01-14T11:28:11.351Z,16.28
2024-01-14T11:29:09.272Z,16.28
2024-01-14T11:30:09.373Z,16.27
2024-01-14T11:31:09.431Z,16.28
2024-01-14T11:32:09.378Z,16.27
2024-01-14T11:33:09.405Z,16.25
2024-01-14T11:34:09.405Z,16.29
2024-01-14T11:35:09.368Z,16.29
2024-01-14T11:36:09.362Z,16.28
2024-01-14T11:37:09.269Z,16.27
2024-01-14T11:38:09.320Z,16.28
2024-01-14T11:39:09.312Z,16.27
2024-01-14T11:40:09.406Z,16.28
2024-01-14T11:41:09.302Z,16.28
2024-01-14T11:42:09.325Z,16.28
2024-01-14T11:43:09.315Z,16.29
2024-01-14T11:44:09.318Z,16.29
2024-01-14T11:45:09.303Z,16.27
2024-01-14T11:46:09.391Z,16.27
2024-01-14T11:47:09.290Z,16.27
2024-01-14T11:48:09.404Z,16.27
2024-01-14T11:49:16.888Z,16.25
2024-01-14T11:50:10.414Z,16.21
2024-01-14T11:51:09.337Z,16.23
2024-01-14T11:52:09.319Z,16.22
2024-01-14T11:53:09.332Z,16.23
2024-01-14T11:54:09.335Z,16.22
2024-01-14T11:55:09.329Z,16.22
2024-01-14T11:56:09.342Z,16.20
2024-01-14T11:57:09.319Z,16.20
2024-01-14T11:58:09.333Z,16.19
2024-01-14T11:59:09.306Z,16.19
2024-01-14T12:00:09.360Z,16.21
2024-01-14T12:01:09.390Z,16.18
2024-01-14T12:02:09.351Z,16.20
2024-01-14T12:03:09.362Z,16.19
2024-01-14T12:04:09.383Z,16.20
2024-01-14T12:05:13.579Z,16.18
2024-01-14T12:06:09.522Z,16.18
2024-01-14T12:07:09.571Z,16.18
2024-01-14T12:08:09.370Z,16.17
2024-01-14T12:09:09.343Z,16.19
2024-01-14T12:10:09.365Z,16.16
2024-01-14T12:11:09.338Z,16.17
2024-01-14T12:12:11.402Z,16.15
2024-01-14T12:13:09.843Z,16.16
2024-01-14T12:14:09.349Z,16.17
2024-01-14T12:15:09.398Z,16.18
2024-01-14T12:16:09.418Z,16.14
2024-01-14T12:17:09.342Z,16.15
2024-01-14T12:18:09.898Z,16.13
2024-01-14T12:19:09.427Z,16.12
2024-01-14T12:20:09.496Z,16.11
2024-01-14T12:21:22.777Z,16.12
2024-01-14T12:22:11.221Z,16.10
2024-01-14T12:23:09.379Z,16.09
2024-01-14T12:24:09.395Z,16.07
2024-01-14T12:25:09.377Z,16.06
2024-01-14T12:26:09.392Z,16.06
2024-01-14T12:27:09.410Z,16.04
2024-01-14T12:28:09.384Z,16.03
2024-01-14T12:29:09.356Z,16.04
2024-01-14T12:30:09.453Z,16.03
2024-01-14T12:31:09.430Z,16.03
2024-01-14T12:32:09.453Z,16.04
2024-01-14T12:33:09.708Z,16.03
2024-01-14T12:34:09.508Z,16.06
2024-01-14T12:35:09.392Z,16.03
2024-01-14T12:36:09.468Z,16.02
2024-01-14T12:38:09.418Z,16.01
2024-01-14T12:39:09.392Z,16.03
2024-01-14T12:40:09.377Z,16.03
2024-01-14T12:41:09.372Z,16.04
2024-01-14T12:42:09.392Z,16.05
2024-01-14T12:43:09.377Z,16.06
2024-01-14T12:44:09.384Z,16.08
2024-01-14T12:45:09.382Z,16.08
2024-01-14T12:46:09.401Z,16.09
2024-01-14T12:47:09.525Z,16.10
2024-01-14T12:48:09.506Z,16.11
2024-01-14T12:49:15.256Z,16.12
2024-01-14T12:50:10.443Z,16.14
2024-01-14T12:51:09.403Z,16.14
2024-01-14T12:52:09.614Z,16.14
2024-01-14T12:53:09.423Z,16.15
2024-01-14T12:54:15.621Z,16.14